Time;durP1;ratioP1;P1;durP2;ratioP2;P2;SDS_P1;SDS_P2;PMS_P1;PMS_P2;Temp;Humidity;BMP_temperature;BMP_pressure;BME280_temperature;BME280_humidity;BME280_pressure;Samples;Min_cycle;Max_cycle;Signal;HPM_P1;HPM_P2
2022/04/07 00:01:49;;;;;;;6.03;2.10;;;;;;;18.82;53.64;98928.91;5032788;28;20213;-60
2022/04/07 00:04:14;;;;;;;7.23;2.37;;;;;;;18.80;53.82;98925.66;5014729;28;20180;-60
2022/04/07 00:06:40;;;;;;;4.50;1.73;;;;;;;18.79;53.53;98926.06;5033003;28;20176;-60
2022/04/07 00:09:06;;;;;;;11.40;2.23;;;;;;;18.82;53.13;98913.81;5032961;28;20211;-60
2022/04/07 00:11:31;;;;;;;5.97;1.60;;;;;;;18.79;53.46;98921.19;5033209;28;20571;-60
2022/04/07 00:13:56;;;;;;;4.60;2.23;;;;;;;18.83;53.11;98918.28;5032957;28;20187;-60
2022/04/07 00:16:22;;;;;;;3.40;1.83;;;;;;;18.81;53.13;98915.84;5033105;28;20239;-60
2022/04/07 00:18:47;;;;;;;5.03;1.93;;;;;;;18.79;52.94;98912.59;5032880;28;20180;-60
2022/04/07 00:21:24;;;;;;;5.40;2.17;;;;;;;18.81;53.61;98910.13;5032456;28;20219;-60
2022/04/07 00:23:53;;;;;;;4.27;1.60;;;;;;;18.83;53.43;98901.97;5032833;28;20164;-60
2022/04/07 00:26:18;;;;;;;8.50;2.10;;;;;;;18.78;53.48;98896.69;5032692;28;20431;-60
2022/04/07 00:28:44;;;;;;;4.33;2.17;;;;;;;18.79;53.52;98892.59;5032624;28;20458;-60
2022/04/07 00:31:11;;;;;;;7.73;2.10;;;;;;;18.79;53.35;98884.00;5032482;28;20176;-60
2022/04/07 00:33:37;;;;;;;5.67;2.20;;;;;;;18.79;53.05;98878.28;5032175;28;20237;-62
2022/04/07 00:36:04;;;;;;;5.97;2.40;;;;;;;18.77;53.60;98875.00;5032317;28;20427;-61
2022/04/07 00:38:30;;;;;;;5.87;2.03;;;;;;;18.78;53.41;98865.22;5032249;28;20215;-61
2022/04/07 00:40:55;;;;;;;5.03;1.57;;;;;;;18.77;53.32;98857.84;5031856;28;20837;-61
2022/04/07 00:43:30;;;;;;;3.43;1.80;;;;;;;18.77;53.50;98866.44;5032463;28;20689;-61
2022/04/07 00:45:59;;;;;;;3.50;2.00;;;;;;;18.78;53.39;98862.38;5031880;28;20230;-61
2022/04/07 00:48:25;;;;;;;4.00;1.80;;;;;;;18.78;53.35;98853.78;5013822;28;20483;-61
2022/04/07 00:50:51;;;;;;;5.70;2.23;;;;;;;18.79;53.37;98857.44;5031886;28;20430;-61
2022/04/07 00:53:16;;;;;;;3.53;1.63;;;;;;;18.76;53.34;98864.81;5032403;28;20502;-61
2022/04/07 00:55:41;;;;;;;5.83;2.20;;;;;;;18.78;53.10;98865.22;5014175;28;20180;-60
2022/04/07 00:58:07;;;;;;;5.40;1.93;;;;;;;18.75;53.34;98857.47;5014438;28;20184;-60
2022/04/07 01:00:34;;;;;;;3.80;1.80;;;;;;;18.78;53.35;98852.97;5032315;28;20290;-60
2022/04/07 01:02:59;;;;;;;4.10;1.50;;;;;;;18.80;52.96;98850.50;5032184;28;20216;-60
2022/04/07 01:05:25;;;;;;;4.80;1.93;;;;;;;18.81;53.46;98835.00;5032012;28;20425;-60
2022/04/07 01:07:51;;;;;;;4.23;1.60;;;;;;;18.79;53.29;98838.25;5031849;28;20180;-60
2022/04/07 01:10:16;;;;;;;4.77;1.60;;;;;;;18.79;53.10;98843.16;5030737;28;20188;-60
2022/04/07 01:12:41;;;;;;;5.60;2.40;;;;;;;18.76;53.46;98826.84;5031706;28;20540;-61
2022/04/07 01:15:08;;;;;;;5.80;1.90;;;;;;;18.76;53.18;98835.44;5031510;28;20543;-61
2022/04/07 01:17:38;;;;;;;5.73;1.70;;;;;;;18.80;53.16;98833.34;5030384;28;20188;-61
2022/04/07 01:20:06;;;;;;;4.83;1.83;;;;;;;18.77;53.23;98842.78;5030121;28;20789;-61
2022/04/07 01:22:34;;;;;;;3.43;1.50;;;;;;;18.76;53.57;98838.28;5031864;28;20539;-61
2022/04/07 01:25:00;;;;;;;5.17;2.07;;;;;;;18.78;53.29;98833.78;5030414;28;20464;-61
2022/04/07 01:27:25;;;;;;;3.33;1.70;;;;;;;18.74;53.43;98827.25;5013525;28;20431;-60
2022/04/07 01:29:54;;;;;;;4.83;1.70;;;;;;;18.74;53.26;98823.56;5031343;28;20189;-60
2022/04/07 01:32:26;;;;;;;3.60;1.60;;;;;;;18.75;53.18;98828.06;5031936;28;20184;-60
2022/04/07 01:34:52;;;;;;;3.23;1.93;;;;;;;18.75;53.24;98820.31;5013962;28;20426;-62
2022/04/07 01:37:17;;;;;;;2.80;1.70;;;;;;;18.76;53.18;98816.22;5031491;28;20427;-61
2022/04/07 01:39:43;;;;;;;5.30;1.93;;;;;;;18.77;53.23;98825.63;5014994;28;20666;-61
2022/04/07 01:42:09;;;;;;;7.50;1.70;;;;;;;18.79;52.97;98815.38;5031451;28;20184;-61
2022/04/07 01:44:36;;;;;;;3.33;1.47;;;;;;;18.78;53.34;98810.91;5031162;28;20188;-61
2022/04/07 01:47:02;;;;;;;2.47;1.30;;;;;;;18.75;53.20;98811.72;5030343;28;20200;-60
2022/04/07 01:49:28;;;;;;;3.53;1.67;;;;;;;18.77;53.20;98805.59;5013699;28;20482;-60
2022/04/07 01:51:53;;;;;;;4.20;1.40;;;;;;;18.79;52.84;98797.41;5031487;28;20427;-60
2022/04/07 01:54:19;;;;;;;5.30;1.63;;;;;;;18.79;52.90;98808.84;5031463;28;20552;-60
2022/04/07 01:56:44;;;;;;;3.03;1.80;;;;;;;18.77;52.82;98800.69;5031531;28;20176;-60
2022/04/07 01:59:10;;;;;;;3.53;1.77;;;;;;;18.78;53.22;98796.63;5029652;28;20224;-60
2022/04/07 02:01:35;;;;;;;3.23;1.60;;;;;;;18.80;52.99;98796.16;5031351;28;20191;-60
2022/04/07 02:04:01;;;;;;;3.23;1.47;;;;;;;18.79;52.86;98786.78;5031117;28;20180;-60
2022/04/07 02:06:27;;;;;;;4.23;1.60;;;;;;;18.78;52.88;98793.75;5031384;28;20625;-60
2022/04/07 02:08:53;;;;;;;3.57;1.47;;;;;;;18.79;53.07;98792.50;5030936;28;20216;-60
2022/04/07 02:11:18;;;;;;;4.33;1.83;;;;;;;18.77;52.92;98789.25;5030057;28;20415;-60
2022/04/07 02:13:44;;;;;;;7.73;1.80;;;;;;;18.77;53.28;98789.25;5031056;28;20176;-61
2022/04/07 02:16:10;;;;;;;4.03;1.47;;;;;;;18.81;52.93;98781.47;5031073;28;20172;-61
2022/04/07 02:18:36;;;;;;;3.40;1.50;;;;;;;18.76;52.82;98781.09;5013584;28;20180;-61
2022/04/07 02:21:02;;;;;;;3.60;1.30;;;;;;;18.77;53.19;98779.88;5031187;28;20870;-61
2022/04/07 02:23:27;;;;;;;3.87;1.57;;;;;;;18.78;52.85;98784.34;5031315;28;20419;-61
2022/04/07 02:25:53;;;;;;;3.50;1.47;;;;;;;18.78;53.05;98790.91;5031161;28;20418;-61
2022/04/07 02:28:19;;;;;;;3.97;1.83;;;;;;;18.80;52.58;98785.56;5033139;28;20266;-61
2022/04/07 02:30:45;;;;;;;3.20;1.40;;;;;;;18.81;52.69;98781.47;5034964;28;20178;-61
2022/04/07 02:33:11;;;;;;;10.63;1.70;;;;;;;18.80;52.85;98770.44;5035102;28;20187;-61
2022/04/07 02:35:36;;;;;;;3.80;2.00;;;;;;;18.78;52.85;98758.63;5034310;28;20474;-61
2022/04/07 02:38:02;;;;;;;4.40;1.80;;;;;;;18.76;53.22;98761.09;5034916;28;20165;-61
2022/04/07 02:40:27;;;;;;;3.60;1.77;;;;;;;18.76;53.16;98763.97;5034229;28;20177;-61
2022/04/07 02:42:52;;;;;;;2.67;1.40;;;;;;;18.78;52.89;98767.19;5034024;28;20176;-61
2022/04/07 02:45:18;;;;;;;3.40;1.30;;;;;;;18.77;52.93;98768.44;5034523;28;20200;-61
2022/04/07 02:47:43;;;;;;;3.67;1.33;;;;;;;18.76;53.02;98763.97;5034369;28;20207;-61
2022/04/07 02:50:09;;;;;;;3.07;1.50;;;;;;;18.80;52.92;98756.97;5034642;28;20177;-60
2022/04/07 02:52:34;;;;;;;2.57;1.33;;;;;;;18.80;53.05;98753.28;5017004;28;20618;-60
2022/04/07 02:55:00;;;;;;;3.13;1.40;;;;;;;18.77;52.79;98743.50;5034315;28;20229;-60
2022/04/07 02:57:30;;;;;;;3.60;1.43;;;;;;;18.73;53.06;98737.03;5033936;28;20280;-60
2022/04/07 02:59:56;;;;;;;4.70;1.53;;;;;;;18.77;52.92;98737.00;5034553;28;20172;-60
2022/04/07 03:02:22;;;;;;;3.20;1.20;;;;;;;18.80;52.93;98733.25;5034335;28;20989;-60
2022/04/07 03:04:47;;;;;;;3.63;1.50;;;;;;;18.77;52.62;98734.91;5034330;28;20545;-60
2022/04/07 03:07:13;;;;;;;3.37;1.27;;;;;;;18.79;52.72;98731.66;5034521;28;20532;-60
2022/04/07 03:09:40;;;;;;;3.40;1.60;;;;;;;18.77;53.05;98723.50;5034110;28;20217;-60
2022/04/07 03:12:05;;;;;;;3.63;1.27;;;;;;;18.74;53.04;98730.06;5033642;28;20192;-60
2022/04/07 03:14:31;;;;;;;4.10;1.67;;;;;;;18.76;52.82;98719.00;5033937;28;20465;-60
2022/04/07 03:16:58;;;;;;;4.00;1.30;;;;;;;18.73;52.82;98725.59;5034231;28;20644;-60
2022/04/07 03:19:24;;;;;;;2.60;1.40;;;;;;;18.74;52.71;98717.81;5033925;28;20177;-60
2022/04/07 03:21:49;;;;;;;3.30;1.10;;;;;;;18.77;52.86;98714.13;5033709;28;20505;-60
2022/04/07 03:24:14;;;;;;;2.63;1.30;;;;;;;18.77;52.62;98712.06;5033738;28;20183;-61
2022/04/07 03:26:40;;;;;;;4.30;1.67;;;;;;;18.80;52.60;98718.97;5033778;28;20189;-61
2022/04/07 03:29:05;;;;;;;2.33;1.20;;;;;;;18.79;52.62;98723.06;5032786;28;20202;-61
2022/04/07 03:31:31;;;;;;;3.10;1.40;;;;;;;18.78;52.49;98707.16;5033559;28;20183;-61
2022/04/07 03:33:56;;;;;;;3.30;1.50;;;;;;;18.73;52.82;98719.03;5033944;28;20177;-61
2022/04/07 03:36:22;;;;;;;5.27;1.50;;;;;;;18.77;52.82;98709.19;5033956;28;20164;-61
2022/04/07 03:38:49;;;;;;;4.73;1.57;;;;;;;18.75;52.71;98710.84;5032673;28;20207;-61
2022/04/07 03:41:15;;;;;;;2.77;1.50;;;;;;;18.75;52.84;98708.81;5033262;28;20188;-61
2022/04/07 03:43:42;;;;;;;3.50;2.03;;;;;;;18.73;52.97;98696.16;5033568;28;20894;-61
2022/04/07 03:46:08;;;;;;;2.63;1.10;;;;;;;18.75;52.71;98691.66;5033655;28;20434;-60
2022/04/07 03:48:33;;;;;;;2.83;1.30;;;;;;;18.75;52.89;98683.09;5033149;28;20510;-61
2022/04/07 03:50:59;;;;;;;3.17;1.43;;;;;;;18.78;52.66;98693.69;5033208;28;20415;-60
2022/04/07 03:53:24;;;;;;;3.57;1.10;;;;;;;18.73;52.90;98679.84;5033006;28;20187;-60
2022/04/07 03:55:50;;;;;;;2.13;1.03;;;;;;;18.73;52.92;98676.16;5033322;28;20177;-60
2022/04/07 03:58:16;;;;;;;2.57;1.50;;;;;;;18.72;53.04;98681.06;5015495;28;20187;-61
2022/04/07 04:00:41;;;;;;;6.50;1.50;;;;;;;18.76;52.51;98676.13;5032702;28;20180;-61
2022/04/07 04:03:06;;;;;;;2.57;1.40;;;;;;;18.76;52.94;98681.84;5032379;28;20562;-61
2022/04/07 04:05:32;;;;;;;2.90;1.50;;;;;;;18.79;52.35;98677.31;5033218;28;20173;-61
2022/04/07 04:07:59;;;;;;;4.07;1.37;;;;;;;18.78;52.65;98687.16;5033055;28;20287;-61
2022/04/07 04:10:25;;;;;;;2.87;1.27;;;;;;;18.80;52.76;98684.66;5032751;28;20188;-61
2022/04/07 04:12:50;;;;;;;2.30;1.20;;;;;;;18.76;52.83;98698.19;5015210;28;20497;-61
2022/04/07 04:15:16;;;;;;;6.33;1.50;;;;;;;18.73;52.82;98696.16;5033013;28;20172;-61
2022/04/07 04:17:41;;;;;;;3.00;1.27;;;;;;;18.76;52.51;98678.97;5031844;28;20246;-61
2022/04/07 04:20:07;;;;;;;4.93;1.63;;;;;;;18.78;52.49;98682.25;5031600;28;20199;-62
2022/04/07 04:22:33;;;;;;;2.10;1.23;;;;;;;18.76;52.70;98675.34;5032958;28;20260;-61
2022/04/07 04:24:59;;;;;;;5.27;1.50;;;;;;;18.78;52.70;98675.72;5032596;28;20423;-61
2022/04/07 04:27:24;;;;;;;3.00;1.50;;;;;;;18.79;52.30;98660.19;5032970;28;20230;-61
2022/04/07 04:29:50;;;;;;;4.80;1.83;;;;;;;18.75;52.68;98663.06;5032657;28;20211;-61
2022/04/07 04:32:15;;;;;;;5.27;1.60;;;;;;;18.80;52.57;98662.63;5032871;28;20202;-61
2022/04/07 04:34:41;;;;;;;3.07;1.33;;;;;;;18.81;52.79;98658.50;5032407;28;20185;-61
2022/04/07 04:37:06;;;;;;;4.03;1.20;;;;;;;18.78;52.46;98653.66;5032278;28;20541;-61
2022/04/07 04:39:32;;;;;;;2.00;1.10;;;;;;;18.76;52.44;98656.13;5031794;28;20176;-61
2022/04/07 04:41:57;;;;;;;2.73;1.40;;;;;;;18.77;52.51;98652.00;5032843;28;20180;-61
2022/04/07 04:44:23;;;;;;;4.20;1.33;;;;;;;18.78;53.04;98652.84;5032443;28;20179;-61
2022/04/07 04:46:48;;;;;;;2.80;1.40;;;;;;;18.76;52.51;98638.16;5032387;28;20721;-61
2022/04/07 04:49:13;;;;;;;2.77;1.03;;;;;;;18.76;52.52;98636.09;5031808;28;20225;-61
2022/04/07 04:51:39;;;;;;;3.73;1.10;;;;;;;18.76;52.52;98632.44;5032099;28;20203;-61
2022/04/07 04:54:05;;;;;;;4.00;1.27;;;;;;;18.80;52.55;98633.19;5031421;28;20180;-61
2022/04/07 04:56:30;;;;;;;3.30;1.10;;;;;;;18.79;52.45;98626.69;5032456;28;20176;-61
2022/04/07 04:58:59;;;;;;;2.83;1.40;;;;;;;18.77;52.33;98612.00;5032095;28;20177;-61
2022/04/07 05:01:24;;;;;;;3.37;1.40;;;;;;;18.79;52.47;98617.28;5032295;28;20176;-61
2022/04/07 05:03:50;;;;;;;2.13;1.17;;;;;;;18.75;52.72;98622.22;5032158;28;20414;-61
2022/04/07 05:06:15;;;;;;;3.00;1.27;;;;;;;18.77;52.50;98614.84;5032124;28;20790;-61
2022/04/07 05:08:41;;;;;;;2.30;1.10;;;;;;;18.78;52.81;98613.63;5031536;28;20560;-61
2022/04/07 05:11:07;;;;;;;3.50;1.10;;;;;;;18.76;52.83;98607.50;5032101;28;20169;-61
2022/04/07 05:13:32;;;;;;;2.13;1.07;;;;;;;18.78;52.35;98607.91;5031689;28;20256;-61
2022/04/07 05:15:57;;;;;;;2.60;0.93;;;;;;;18.78;52.49;98601.38;5031939;28;20176;-62
2022/04/07 05:18:23;;;;;;;2.00;1.00;;;;;;;18.74;53.02;98589.97;5031490;28;20525;-61
2022/04/07 05:20:48;;;;;;;2.50;1.23;;;;;;;18.77;52.50;98583.41;5030710;28;20176;-61
2022/04/07 05:23:14;;;;;;;3.23;1.10;;;;;;;18.77;52.56;98577.69;5031096;28;20263;-61
2022/04/07 05:25:39;;;;;;;2.50;1.40;;;;;;;18.77;52.51;98576.88;5031350;28;20187;-61
2022/04/07 05:28:06;;;;;;;2.83;1.20;;;;;;;18.80;52.36;98576.03;5031615;28;20188;-60
2022/04/07 05:30:32;;;;;;;2.30;1.20;;;;;;;18.77;52.42;98562.59;5030752;28;20243;-60
2022/04/07 05:32:57;;;;;;;4.33;2.00;;;;;;;18.76;52.40;98570.34;5031974;28;20903;-60
2022/04/07 05:35:26;;;;;;;2.07;1.07;;;;;;;18.74;52.38;98572.81;5031669;28;20419;-60
2022/04/07 05:37:57;;;;;;;3.27;1.20;;;;;;;18.75;52.48;98570.75;5031721;28;20176;-60
2022/04/07 05:40:22;;;;;;;1.97;1.00;;;;;;;18.70;52.67;98572.06;5030478;28;20418;-60
2022/04/07 05:42:48;;;;;;;4.27;1.10;;;;;;;18.74;52.42;98581.41;5031865;28;20406;-60
2022/04/07 05:45:13;;;;;;;2.40;1.10;;;;;;;18.75;52.22;98570.75;5031686;28;20601;-60
2022/04/07 05:47:39;;;;;;;3.20;1.20;;;;;;;18.79;52.28;98569.50;5030996;28;20172;-60
2022/04/07 05:50:05;;;;;;;3.23;0.97;;;;;;;18.77;52.42;98571.97;5031048;28;20228;-61
2022/04/07 05:52:31;;;;;;;2.17;1.10;;;;;;;18.74;52.50;98567.13;5031682;28;20413;-61
2022/04/07 05:54:56;;;;;;;4.20;1.33;;;;;;;18.77;52.38;98566.25;5031296;28;20589;-61
2022/04/07 05:57:26;;;;;;;3.23;1.37;;;;;;;18.77;52.66;98576.88;5029703;28;20183;-61
2022/04/07 05:59:51;;;;;;;3.50;1.10;;;;;;;18.77;52.22;98577.69;5028337;28;20548;-61
2022/04/07 06:02:16;;;;;;;2.30;1.03;;;;;;;18.73;52.48;98573.25;5028662;28;20419;-61
2022/04/07 06:04:42;;;;;;;6.57;1.10;;;;;;;18.80;52.18;98578.88;5032156;28;20180;-62
2022/04/07 06:07:07;;;;;;;4.93;1.90;;;;;;;19.11;54.00;98569.16;5031589;28;20187;-62
2022/04/07 06:09:34;;;;;;;10.13;1.80;;;;;;;19.07;53.18;98562.66;5030175;28;20203;-62
2022/04/07 06:12:00;;;;;;;3.90;1.67;;;;;;;18.98;52.66;98563.19;5032853;28;20183;-62
2022/04/07 06:14:25;;;;;;;3.67;1.47;;;;;;;18.98;52.67;98568.91;5034099;28;20415;-62
2022/04/07 06:16:51;;;;;;;4.83;1.20;;;;;;;18.94;53.08;98561.56;5016428;28;20533;-61
2022/04/07 06:19:16;;;;;;;2.10;0.80;;;;;;;19.01;52.66;98542.28;5032702;28;20169;-61
2022/04/07 06:21:43;;;;;;;5.67;1.23;;;;;;;18.97;53.14;98541.50;5032109;28;20793;-62
2022/04/07 06:24:08;;;;;;;6.83;0.77;;;;;;;19.03;52.85;98528.38;5033975;28;20173;-61
2022/04/07 06:26:34;;;;;;;2.57;1.00;;;;;;;19.02;52.86;98521.03;5033278;28;20798;-61
2022/04/07 06:28:59;;;;;;;5.20;1.10;;;;;;;19.10;51.71;98505.41;5032307;28;20200;-61
2022/04/07 06:31:25;;;;;;;1.70;0.80;;;;;;;19.12;51.93;98511.50;5033347;28;20184;-61
2022/04/07 06:33:50;;;;;;;5.07;2.20;;;;;;;19.16;51.91;98515.13;5033656;28;20235;-61
2022/04/07 06:36:15;;;;;;;5.03;1.83;;;;;;;19.15;52.29;98495.53;5014738;28;20635;-61
2022/04/07 06:38:41;;;;;;;4.27;1.77;;;;;;;19.12;51.85;98494.34;5033896;28;20164;-62
2022/04/07 06:41:06;;;;;;;5.07;1.83;;;;;;;19.09;51.68;98500.09;5032323;28;20509;-62
2022/04/07 06:43:32;;;;;;;2.60;1.30;;;;;;;19.07;51.61;98491.94;5033330;28;20173;-62
2022/04/07 06:45:57;;;;;;;3.57;1.13;;;;;;;19.07;52.05;98483.38;5033008;28;20204;-61
2022/04/07 06:48:23;;;;;;;4.00;1.80;;;;;;;19.06;52.10;98478.91;5031685;28;20220;-61
2022/04/07 06:50:48;;;;;;;5.77;1.67;;;;;;;19.08;52.06;98469.88;5031071;28;20176;-62
2022/04/07 06:53:14;;;;;;;4.00;1.40;;;;;;;19.04;51.86;98457.69;5032559;28;20226;-61
2022/04/07 06:55:39;;;;;;;3.70;1.30;;;;;;;19.06;51.68;98455.22;5033059;28;20222;-61
2022/04/07 06:58:10;;;;;;;3.13;1.07;;;;;;;19.05;51.83;98453.56;5032573;28;20184;-61
2022/04/07 07:00:42;;;;;;;8.03;1.90;;;;;;;19.10;52.25;98455.97;5030575;28;20200;-61
2022/04/07 07:03:08;;;;;;;5.90;1.50;;;;;;;19.13;52.77;98444.50;5032113;28;20415;-61
2022/04/07 07:05:34;;;;;;;8.60;1.83;;;;;;;19.10;52.94;98445.34;5032740;28;20450;-61
2022/04/07 07:08:18;;;;;;;6.23;1.27;;;;;;;19.13;53.12;98435.09;5034252;28;20180;-61
2022/04/07 07:10:46;;;;;;;5.17;1.80;;;;;;;19.10;53.09;98428.19;5034061;28;20426;-61
2022/04/07 07:13:12;;;;;;;3.53;1.30;;;;;;;19.14;53.11;98430.97;5015839;28;20416;-61
2022/04/07 07:15:38;;;;;;;6.03;1.60;;;;;;;19.12;53.08;98428.53;5033803;28;20427;-61
2022/04/07 07:18:04;;;;;;;5.80;1.67;;;;;;;19.14;53.28;98430.97;5034211;28;20419;-62
2022/04/07 07:20:29;;;;;;;4.97;1.53;;;;;;;19.17;53.15;98430.94;5034017;28;20477;-61
2022/04/07 07:22:55;;;;;;;5.40;1.10;;;;;;;19.13;53.21;98421.59;5033922;28;20704;-61
2022/04/07 07:25:20;;;;;;;3.37;1.33;;;;;;;19.11;53.05;98432.66;5033731;28;20169;-61
2022/04/07 07:27:46;;;;;;;6.30;2.00;;;;;;;19.10;53.02;98413.06;5033981;28;20180;-61
2022/04/07 07:30:14;;;;;;;5.17;1.20;;;;;;;19.09;53.41;98402.88;5032528;28;20200;-61
2022/04/07 07:32:40;;;;;;;2.33;1.00;;;;;;;19.07;53.38;98402.50;5033959;28;20467;-61
2022/04/07 07:35:06;;;;;;;7.30;1.60;;;;;;;19.06;53.27;98393.09;5033335;28;20778;-61
2022/04/07 07:37:32;;;;;;;4.70;1.10;;;;;;;19.08;53.58;98395.53;5033891;28;20176;-61
2022/04/07 07:40:06;;;;;;;12.13;1.30;;;;;;;19.03;53.69;98385.38;5033452;28;20415;-61
2022/04/07 07:42:31;;;;;;;7.00;1.43;;;;;;;19.05;53.46;98377.19;5033791;28;20167;-61
2022/04/07 07:44:57;;;;;;;5.00;1.20;;;;;;;19.04;53.50;98384.16;5033230;28;20411;-61
2022/04/07 07:47:22;;;;;;;4.20;1.07;;;;;;;19.00;53.45;98385.41;5033686;28;20181;-61
2022/04/07 07:49:47;;;;;;;2.47;1.10;;;;;;;18.98;53.38;98368.72;5033152;28;20246;-62
2022/04/07 07:52:13;;;;;;;6.33;1.40;;;;;;;18.99;53.56;98364.59;5033520;28;20179;-62
2022/04/07 07:54:38;;;;;;;7.37;1.30;;;;;;;18.98;53.68;98370.75;5015404;28;20183;-62
2022/04/07 07:57:04;;;;;;;9.63;1.40;;;;;;;18.97;53.69;98358.50;5033511;28;20188;-62
2022/04/07 07:59:29;;;;;;;5.60;1.07;;;;;;;18.95;53.53;98372.41;5033343;28;20172;-62
2022/04/07 08:01:55;;;;;;;9.80;1.07;;;;;;;18.95;53.53;98360.16;5033308;28;20171;-62
2022/04/07 08:04:20;;;;;;;6.00;1.20;;;;;;;18.92;53.62;98344.69;5033257;28;20178;-62
2022/04/07 08:06:45;;;;;;;10.20;1.60;;;;;;;18.89;53.71;98339.84;5033245;28;20167;-62
2022/04/07 08:09:13;;;;;;;4.90;1.33;;;;;;;18.90;53.56;98334.91;5032887;28;20283;-62
2022/04/07 08:11:40;;;;;;;4.27;1.17;;;;;;;18.91;53.77;98340.19;5032930;28;20169;-62
2022/04/07 08:14:06;;;;;;;3.73;1.13;;;;;;;18.93;53.54;98343.47;5033151;28;20934;-61
2022/04/07 08:16:31;;;;;;;4.23;1.40;;;;;;;18.94;53.73;98329.94;5033052;28;20426;-61
2022/04/07 08:18:56;;;;;;;2.03;1.10;;;;;;;18.92;53.66;98326.72;5033240;28;20172;-61
2022/04/07 08:21:22;;;;;;;3.53;1.30;;;;;;;18.99;53.53;98323.75;5032842;28;20165;-61
2022/04/07 08:23:47;;;;;;;4.20;1.13;;;;;;;18.98;53.49;98310.69;5032057;28;20164;-61
2022/04/07 08:26:13;;;;;;;8.13;1.63;;;;;;;18.94;53.60;98319.34;5032464;28;20234;-61
2022/04/07 08:28:40;;;;;;;3.80;1.30;;;;;;;18.97;53.47;98309.88;5032543;28;20196;-62
2022/04/07 08:31:05;;;;;;;3.30;1.10;;;;;;;18.93;53.71;98306.28;5032991;28;20683;-62
2022/04/07 08:33:31;;;;;;;4.53;1.43;;;;;;;18.95;53.78;98305.84;5032856;28;20419;-62
2022/04/07 08:35:56;;;;;;;5.03;1.20;;;;;;;18.95;53.55;98286.63;5032622;28;20161;-62
2022/04/07 08:38:21;;;;;;;2.63;1.23;;;;;;;19.01;53.52;98278.38;5032415;28;20165;-62
2022/04/07 08:40:49;;;;;;;2.03;0.80;;;;;;;18.97;53.51;98306.22;5032832;28;20194;-62
2022/04/07 08:43:15;;;;;;;3.67;0.90;;;;;;;18.98;53.64;98302.13;5032628;28;20169;-62
2022/04/07 08:45:42;;;;;;;2.30;0.90;;;;;;;18.99;53.60;98298.84;5032242;28;20481;-62
2022/04/07 08:48:09;;;;;;;3.10;1.20;;;;;;;18.99;53.47;98293.13;5032041;28;20286;-62
2022/04/07 08:50:35;;;;;;;3.00;1.40;;;;;;;19.04;53.34;98295.50;5014858;28;20454;-61
2022/04/07 08:53:01;;;;;;;3.07;0.80;;;;;;;19.04;53.08;98315.50;5032187;28;20423;-61
2022/04/07 08:55:27;;;;;;;7.00;1.20;;;;;;;19.04;53.49;98311.81;5032188;28;20172;-61
2022/04/07 08:57:52;;;;;;;2.10;0.80;;;;;;;19.06;53.18;98298.72;4988345;28;20470;-61
2022/04/07 09:00:17;;;;;;;5.40;1.40;;;;;;;19.04;53.33;98306.94;5031219;28;20540;-61
2022/04/07 09:02:43;;;;;;;4.60;0.97;;;;;;;19.06;53.21;98315.06;5031684;28;20180;-61
2022/04/07 09:05:10;;;;;;;7.23;0.90;;;;;;;19.04;53.34;98304.06;5031935;28;20187;-61
2022/04/07 09:07:35;;;;;;;3.80;1.23;;;;;;;19.02;53.85;98325.75;5031799;28;20954;-61
2022/04/07 09:10:02;;;;;;;2.40;0.80;;;;;;;19.01;53.67;98304.91;5031911;28;20465;-61
2022/04/07 09:12:27;;;;;;;2.20;1.10;;;;;;;18.99;53.44;98304.56;5032011;28;20176;-61
2022/04/07 09:14:57;;;;;;;2.33;0.90;;;;;;;19.03;53.34;98311.03;5032035;28;20411;-62
2022/04/07 09:17:23;;;;;;;2.80;1.27;;;;;;;18.98;53.35;98314.38;5031315;28;20218;-62
2022/04/07 09:19:52;;;;;;;2.50;1.10;;;;;;;18.96;53.33;98296.81;5031695;28;20407;-61
2022/04/07 09:22:17;;;;;;;2.80;1.00;;;;;;;18.96;53.25;98291.09;5031897;28;20663;-61
2022/04/07 09:24:43;;;;;;;3.47;1.00;;;;;;;18.96;53.46;98288.25;5031712;28;20418;-61
2022/04/07 09:27:10;;;;;;;5.20;1.20;;;;;;;18.97;53.31;98286.22;5031511;28;20188;-61
2022/04/07 09:29:41;;;;;;;2.63;0.93;;;;;;;18.94;53.58;98279.31;5031681;28;20683;-61
2022/04/07 09:32:17;;;;;;;1.93;1.00;;;;;;;18.93;53.48;98271.97;5031629;28;20439;-61
2022/04/07 09:34:43;;;;;;;2.87;1.20;;;;;;;18.94;53.49;98262.16;5031581;28;20426;-61
2022/04/07 09:37:09;;;;;;;2.47;0.77;;;;;;;18.94;53.48;98255.59;5030820;28;20416;-61
2022/04/07 09:39:39;;;;;;;2.30;1.20;;;;;;;18.90;53.70;98255.66;5031501;28;20422;-62
2022/04/07 09:42:17;;;;;;;3.90;1.00;;;;;;;18.87;53.69;98233.66;5031673;28;20187;-62
2022/04/07 09:44:43;;;;;;;3.80;1.17;;;;;;;18.83;54.15;98237.81;5031287;28;20407;-62
2022/04/07 09:47:11;;;;;;;4.13;0.90;;;;;;;18.85;53.81;98233.28;5031328;28;20541;-62
2022/04/07 09:49:37;;;;;;;2.90;1.07;;;;;;;18.83;53.53;98232.94;5031363;28;20228;-62
2022/04/07 09:52:02;;;;;;;3.60;1.10;;;;;;;18.81;53.82;98241.09;5031643;28;20419;-61
2022/04/07 09:54:28;;;;;;;2.80;0.90;;;;;;;18.81;53.96;98246.03;5031389;28;20426;-61
2022/04/07 09:56:53;;;;;;;2.67;0.80;;;;;;;18.81;53.72;98235.38;5031290;28;20215;-61
2022/04/07 09:59:19;;;;;;;2.43;0.80;;;;;;;18.81;53.68;98232.53;5031490;28;20169;-61
2022/04/07 10:01:47;;;;;;;2.30;1.03;;;;;;;18.78;53.39;98224.03;5029978;28;20204;-61
2022/04/07 10:04:13;;;;;;;3.13;1.13;;;;;;;18.79;53.93;98217.88;5013852;28;20515;-61
2022/04/07 10:06:39;;;;;;;2.03;0.93;;;;;;;18.80;53.90;98210.91;5030202;28;20408;-61
2022/04/07 10:09:09;;;;;;;2.57;0.93;;;;;;;18.78;53.77;98216.25;5030803;28;20200;-61
2022/04/07 10:11:35;;;;;;;2.50;1.07;;;;;;;18.79;53.88;98220.72;5031584;28;20161;-61
2022/04/07 10:14:01;;;;;;;2.27;1.07;;;;;;;18.81;53.86;98206.00;5030754;28;20426;-62
2022/04/07 10:16:27;;;;;;;2.77;1.23;;;;;;;18.80;53.58;98193.75;5031350;28;20191;-62
2022/04/07 10:19:12;;;;;;;2.60;1.23;;;;;;;18.80;53.85;98198.66;5031183;28;20179;-62
2022/04/07 10:21:46;;;;;;;2.27;0.70;;;;;;;18.79;53.64;98179.91;5013369;28;20271;-62
2022/04/07 10:24:33;;;;;;;1.90;0.87;;;;;;;18.78;53.79;98201.97;5013233;28;20419;-62
2022/04/07 10:27:02;;;;;;;2.47;1.00;;;;;;;18.81;53.38;98181.06;5031269;28;20418;-62
2022/04/07 10:29:28;;;;;;;3.00;1.13;;;;;;;18.84;53.69;98180.22;5003877;28;20467;-61
2022/04/07 10:32:22;;;;;;;3.77;1.10;;;;;;;18.83;53.71;98178.59;5018831;28;20434;-61
2022/04/07 10:34:55;;;;;;;2.27;1.07;;;;;;;18.86;53.46;98182.66;5000426;28;20207;-61
2022/04/07 10:37:41;;;;;;;1.83;0.93;;;;;;;18.83;53.29;98175.75;5031153;28;20792;-61
2022/04/07 10:40:45;;;;;;;2.90;1.10;;;;;;;18.85;53.38;98172.44;5031082;28;20413;-61
2022/04/07 10:43:21;;;;;;;3.97;1.17;;;;;;;18.84;53.48;98163.06;5030576;28;20890;-61
2022/04/07 10:45:51;;;;;;;1.93;0.70;;;;;;;18.87;53.35;98150.75;5014841;28;21225;-61
2022/04/07 10:48:30;;;;;;;3.33;1.03;;;;;;;18.88;53.54;98137.25;5031348;28;20486;-61
2022/04/07 10:50:56;;;;;;;2.07;0.77;;;;;;;18.91;53.02;98157.22;5034143;28;20438;-61
2022/04/07 10:53:24;;;;;;;3.33;1.30;;;;;;;18.90;53.55;98152.75;5034408;28;20423;-62
2022/04/07 10:55:57;;;;;;;3.93;1.13;;;;;;;18.92;53.24;98150.25;5034335;28;20446;-62
2022/04/07 10:58:42;;;;;;;2.60;1.10;;;;;;;18.89;53.19;98161.75;5029350;28;20415;-62
2022/04/07 11:01:12;;;;;;;2.00;0.97;;;;;;;18.95;53.70;98142.84;5034244;28;20430;-61
2022/04/07 11:03:37;;;;;;;3.50;0.90;;;;;;;18.93;53.42;98145.34;5032889;28;20530;-61
2022/04/07 11:06:06;;;;;;;2.87;1.27;;;;;;;18.92;53.32;98138.00;5033604;28;20431;-61
2022/04/07 11:08:32;;;;;;;2.67;0.80;;;;;;;18.91;53.32;98117.19;5034236;28;20286;-61
2022/04/07 11:10:58;;;;;;;2.63;0.80;;;;;;;18.90;53.63;98141.31;5034105;28;20819;-61
2022/04/07 11:13:43;;;;;;;1.50;0.80;;;;;;;18.85;53.45;98118.94;5016410;28;20446;-60
2022/04/07 11:16:25;;;;;;;5.73;0.83;;;;;;;18.87;53.59;98127.88;5033861;28;20179;-61
2022/04/07 11:19:03;;;;;;;2.60;1.07;;;;;;;18.84;53.59;98111.59;5027046;28;20424;-61
2022/04/07 11:21:48;;;;;;;2.13;1.00;;;;;;;18.85;53.30;98092.38;5014294;28;20838;-61
2022/04/07 11:24:29;;;;;;;2.07;0.80;;;;;;;18.86;53.56;98106.25;5022430;28;20438;-61
2022/04/07 11:26:54;;;;;;;2.93;1.10;;;;;;;18.85;53.56;98106.69;5033824;28;20458;-61
2022/04/07 11:29:32;;;;;;;4.10;1.10;;;;;;;18.85;53.47;98104.63;5033530;28;20524;-61
2022/04/07 11:32:08;;;;;;;1.70;0.80;;;;;;;18.85;53.45;98104.63;5033753;28;20675;-61
2022/04/07 11:34:39;;;;;;;1.80;1.10;;;;;;;18.86;53.62;98100.53;5033680;28;20468;-61